Archival Weather

Granbury Rgnl

Granbury, Texas (KGDJ)

Report from: Monday, January 29, 2024 3:15 AM UTC
Current time: Tuesday, June 18, 2024 12:11 PM UTC

Current weather – Weather history – Daily summaries
Weather forecast

Temperature6.9°C (44.4°F)
Dew point2.4°C (36.3°F)
Winds Calm
Visibility10 mi. (16.1 km)
Clouds Sky clear
Altimeter30.36 in.Hg (1028 mB)
Relative humidity73 %
Density altitude-1,369 ft. (-417 m)
Remarks Fully automated report
Automated weather observing station with precipitation discriminator
Flight conditions Visual Meteorological Conditions
Raw dataKGDJ 290315Z AUTO 00000KT 10SM CLR 07/02 A3036 RMK AO2 T00690024
An error has occurred. This application may no longer respond until reloaded. Reload 🗙